TimeCST,TemperatureF,Dew PointF,Humidity,Sea Level PressureIn,VisibilityMPH,Wind Direction,Wind SpeedMPH,Gust SpeedMPH,PrecipitationIn,Events,Conditions,WindDirDegrees,DateUTC
12:09 AM,19.4,17.6,93,30.23,10.0,Calm,Calm,-,N/A,,Clear,0,2013-01-10 06:09:00
12:29 AM,17.6,15.8,93,30.24,10.0,Calm,Calm,-,N/A,,Clear,0,2013-01-10 06:29:00
12:50 AM,17.6,14.0,86,30.23,10.0,Calm,Calm,-,N/A,,Clear,0,2013-01-10 06:50:00
1:09 AM,17.6,15.8,93,30.24,10.0,Calm,Calm,-,N/A,,Clear,0,2013-01-10 07:09:00
1:29 AM,17.6,14.0,86,30.24,10.0,Calm,Calm,-,N/A,,Clear,0,2013-01-10 07:29:00
1:50 AM,17.6,14.0,86,30.24,10.0,Calm,Calm,-,N/A,,Clear,0,2013-01-10 07:50:00
2:09 AM,17.6,14.0,86,30.24,10.0,Calm,Calm,-,N/A,,Clear,0,2013-01-10 08:09:00
2:29 AM,17.6,15.8,93,30.24,10.0,ENE,3.5,-,N/A,,Clear,70,2013-01-10 08:29:00
2:50 AM,17.6,15.8,93,30.22,10.0,ENE,3.5,-,N/A,,Clear,60,2013-01-10 08:50:00
3:09 AM,17.6,15.8,93,30.22,10.0,East,3.5,-,N/A,,Clear,90,2013-01-10 09:09:00
3:29 AM,19.4,14.0,80,30.21,10.0,East,3.5,-,N/A,,Clear,100,2013-01-10 09:29:00
3:50 AM,17.6,14.0,86,30.20,10.0,Calm,Calm,-,N/A,,Clear,0,2013-01-10 09:50:00
4:09 AM,17.6,14.0,86,30.18,10.0,Calm,Calm,-,N/A,,Clear,0,2013-01-10 10:09:00
4:30 AM,17.6,14.0,86,30.18,10.0,Calm,Calm,-,N/A,,Clear,0,2013-01-10 10:30:00
4:49 AM,19.4,15.8,86,30.16,10.0,SE,3.5,-,N/A,,Clear,130,2013-01-10 10:49:00
5:09 AM,21.2,15.8,80,30.16,10.0,Calm,Calm,-,N/A,,Clear,0,2013-01-10 11:09:00
5:30 AM,24.8,19.4,80,30.15,10.0,South,5.8,-,N/A,,Clear,170,2013-01-10 11:30:00
5:49 AM,26.6,19.4,74,30.14,10.0,South,6.9,-,N/A,,Clear,180,2013-01-10 11:49:00
6:30 AM,28.4,21.2,74,30.13,10.0,South,9.2,-,N/A,,Clear,190,2013-01-10 12:30:00
6:49 AM,28.4,21.2,74,30.13,10.0,South,8.1,-,N/A,,Clear,190,2013-01-10 12:49:00
7:09 AM,28.4,21.2,74,30.13,10.0,South,9.2,-,N/A,,Clear,180,2013-01-10 13:09:00
7:30 AM,28.4,21.2,74,30.13,10.0,South,8.1,-,N/A,,Clear,180,2013-01-10 13:30:00
7:49 AM,28.4,21.2,74,30.13,10.0,South,8.1,-,N/A,,Clear,180,2013-01-10 13:49:00
8:30 AM,30.2,23.0,75,30.12,10.0,South,8.1,-,N/A,,Clear,180,2013-01-10 14:30:00
8:50 AM,32.0,23.0,69,30.12,10.0,South,9.2,-,N/A,,Clear,190,2013-01-10 14:50:00
9:10 AM,32.0,23.0,69,30.11,10.0,SSW,12.7,16.1,N/A,,Clear,200,2013-01-10 15:10:00
9:29 AM,32.0,23.0,69,30.10,10.0,South,10.4,-,N/A,,Clear,190,2013-01-10 15:29:00
9:50 AM,33.8,23.0,65,30.10,10.0,South,10.4,21.9,N/A,,Clear,190,2013-01-10 15:50:00
10:09 AM,35.6,26.6,70,30.09,10.0,South,16.1,23.0,N/A,,Clear,190,2013-01-10 16:09:00
10:29 AM,35.6,24.8,65,30.09,10.0,South,15.0,20.7,N/A,,Clear,190,2013-01-10 16:29:00
10:50 AM,39.2,24.8,56,30.07,10.0,SSW,17.3,23.0,N/A,,Clear,200,2013-01-10 16:50:00
11:10 AM,39.2,23.0,52,30.06,10.0,South,17.3,23.0,N/A,,Clear,190,2013-01-10 17:10:00
11:29 AM,41.0,23.0,49,30.05,10.0,South,18.4,24.2,N/A,,Clear,190,2013-01-10 17:29:00
11:50 AM,42.8,23.0,46,30.03,10.0,South,18.4,25.3,N/A,,Clear,190,2013-01-10 17:50:00
12:09 PM,42.8,23.0,46,30.03,10.0,SSW,16.1,24.2,N/A,,Clear,200,2013-01-10 18:09:00
12:30 PM,42.8,23.0,46,30.01,10.0,SSW,18.4,25.3,N/A,,Clear,200,2013-01-10 18:30:00
12:50 PM,42.8,23.0,46,30.01,10.0,South,15.0,18.4,N/A,,Clear,190,2013-01-10 18:50:00
1:09 PM,42.8,21.2,42,30.01,10.0,SSW,18.4,29.9,N/A,,Clear,200,2013-01-10 19:09:00
1:30 PM,42.8,21.2,42,30.00,10.0,SSW,19.6,28.8,N/A,,Clear,200,2013-01-10 19:30:00
1:50 PM,42.8,21.2,42,30.00,10.0,South,17.3,25.3,N/A,,Clear,180,2013-01-10 19:50:00
2:09 PM,42.8,21.2,42,30.00,10.0,SSW,17.3,24.2,N/A,,Clear,200,2013-01-10 20:09:00
2:30 PM,42.8,21.2,42,30.00,10.0,South,12.7,18.4,N/A,,Clear,190,2013-01-10 20:30:00
2:49 PM,42.8,21.2,42,30.00,10.0,South,12.7,18.4,N/A,,Clear,180,2013-01-10 20:49:00
3:09 PM,42.8,17.6,36,29.99,10.0,South,19.6,26.5,N/A,,Clear,190,2013-01-10 21:09:00
3:30 PM,42.8,19.4,39,30.00,10.0,South,9.2,-,N/A,,Clear,180,2013-01-10 21:30:00
3:49 PM,42.8,17.6,36,29.99,10.0,South,10.4,18.4,N/A,,Clear,180,2013-01-10 21:49:00
4:09 PM,39.2,17.6,42,29.99,10.0,South,9.2,-,N/A,,Clear,180,2013-01-10 22:09:00
4:30 PM,39.2,19.4,45,29.98,10.0,South,9.2,-,N/A,,Clear,170,2013-01-10 22:30:00
4:49 PM,39.2,19.4,45,29.97,10.0,SSE,6.9,-,N/A,,Clear,160,2013-01-10 22:49:00
5:09 PM,39.2,19.4,45,29.96,10.0,SE,6.9,-,N/A,,Clear,140,2013-01-10 23:09:00
5:30 PM,39.2,19.4,45,29.94,10.0,SE,8.1,-,N/A,,Clear,140,2013-01-10 23:30:00
5:49 PM,37.4,17.6,45,29.93,10.0,SE,6.9,-,N/A,,Clear,140,2013-01-10 23:49:00
6:09 PM,35.6,17.6,48,29.92,10.0,SE,8.1,-,N/A,,Clear,140,2013-01-11 00:09:00
6:30 PM,35.6,17.6,48,29.90,10.0,SE,6.9,-,N/A,,Mostly Cloudy,140,2013-01-11 00:30:00
6:49 PM,35.6,15.8,44,29.89,10.0,SSE,9.2,16.1,N/A,,Mostly Cloudy,160,2013-01-11 00:49:00
7:10 PM,35.6,14.0,41,29.88,10.0,SE,6.9,-,N/A,,Scattered Clouds,140,2013-01-11 01:10:00
7:29 PM,35.6,14.0,41,29.87,10.0,SSE,6.9,-,N/A,,Mostly Cloudy,150,2013-01-11 01:29:00
7:49 PM,37.4,15.8,41,29.86,10.0,SSE,9.2,-,N/A,,Light Drizzle,150,2013-01-11 01:49:00
8:10 PM,35.6,21.2,56,29.85,10.0,SSE,9.2,-,N/A,Rain,Light Rain,160,2013-01-11 02:10:00
8:29 PM,35.6,24.8,65,29.84,10.0,SSE,9.2,-,N/A,Rain,Light Rain,160,2013-01-11 02:29:00
8:49 PM,33.8,28.4,81,29.83,7.0,SE,3.5,-,0.01,,Overcast,140,2013-01-11 02:49:00
9:10 PM,32.0,28.4,87,29.82,5.0,ESE,3.5,-,0.01,,Overcast,120,2013-01-11 03:10:00
9:29 PM,32.0,28.4,87,29.80,5.0,SE,5.8,-,0.03,,Overcast,140,2013-01-11 03:29:00
9:50 PM,32.0,30.2,93,29.79,5.0,SSE,6.9,-,0.06,,Overcast,150,2013-01-11 03:50:00
10:09 PM,32.0,30.2,93,29.77,4.0,SE,5.8,-,0.01,,Overcast,130,2013-01-11 04:09:00
10:29 PM,32.0,30.2,93,29.75,4.0,ESE,5.8,-,0.06,,Overcast,120,2013-01-11 04:29:00
10:49 PM,32.0,30.2,93,29.74,4.0,SE,8.1,-,0.10,,Overcast,140,2013-01-11 04:49:00
11:09 PM,32.0,32.0,100,29.73,4.0,SE,6.9,-,0.01,,Overcast,140,2013-01-11 05:09:00
11:30 PM,32.0,32.0,100,29.71,3.0,SSE,6.9,-,0.04,,Overcast,150,2013-01-11 05:30:00
11:49 PM,32.0,32.0,100,29.70,7.0,SSE,8.1,-,0.04,,Overcast,150,2013-01-11 05:49:00